YM Masculinity — A8ZD2 — position and weather

sailwx.info

Track history (hours):
 
Tides and Currents Weather Stations Pressure Air Temp Water Temp Dewpoint Dewpoint Depression Visibility Wind Speed Wind Dir Waves Ship Positions

YM Masculinity

Last reported at 2018-Feb-16 22:52 UTC. Time now 2018-Feb-21 03:30 UTC.
Position N 35°00' E 140°23'.

Length 306 m; draft 13 m.

Type: Ship (hazmat cat A). MMSI: 636015183.

Date/timePositionNaut miles runAvg speedWind from/ knotsBaromVisibWave heightAir tempDewpointWater temp
2018-Feb-16 22:52N 35°00' E 140°23'821.1
2018-Feb-16 22:29N 34°56' E 140°15'1121.6
2018-Feb-16 22:00N 34°50' E 140°04'1121.8
2018-Feb-16 21:29N 34°46' E 139°52'1020.9
2018-Feb-16 21:00N 34°42' E 139°41'1121.4
2018-Feb-16 20:30N 34°38' E 139°29'1121.4
2018-Feb-16 20:00N 34°35' E 139°16'1121.3
2018-Feb-16 19:30N 34°30' E 139°05'1121.4
2018-Feb-16 19:00N 34°25' E 138°53'1122.1
2018-Feb-16 18:30N 34°20' E 138°41'1122.9
2018-Feb-16 18:00N 34°15' E 138°29'1222.8
2018-Feb-16 17:30N 34°10' E 138°16'1122.5
2018-Feb-16 16:59N 34°05' E 138°04'97721.2
2018-Feb-14 18:50N 25°39' E 121°60'513.9
2018-Feb-14 18:31N 25°35' E 121°58'714.4
2018-Feb-14 18:00N 25°28' E 121°54'712.4
2018-Feb-14 17:29N 25°22' E 121°51'511.4
2018-Feb-14 17:00N 25°17' E 121°49'611.5
2018-Feb-14 16:30N 25°12' E 121°46'3 6.1
2018-Feb-14 16:00N 25°09' E 121°45'0 0.4
2018-Feb-14 15:29N 25°09' E 121°45'0 0.0
2018-Feb-14 14:59N 25°09' E 121°45'0 0.0
2018-Feb-14 14:23N 25°09' E 121°45'0 0.0
2018-Feb-14 13:59N 25°09' E 121°45'0 0.0
2018-Feb-14 13:29N 25°09' E 121°45'0 0.0
2018-Feb-14 12:59N 25°09' E 121°45'0 0.0
2018-Feb-14 12:29N 25°09' E 121°45'0 0.0
2018-Feb-14 11:59N 25°09' E 121°45'0 0.0
2018-Feb-14 11:29N 25°09' E 121°45'0 0.0
2018-Feb-14 10:59N 25°09' E 121°45'0 0.0
2018-Feb-14 10:30N 25°09' E 121°45'0 0.0
2018-Feb-14 10:00N 25°09' E 121°45'0 0.0
2018-Feb-14 09:30N 25°09' E 121°45'0 0.0
2018-Feb-14 08:57N 25°09' E 121°45'0 0.0
2018-Feb-14 08:30N 25°09' E 121°45'0 0.0
2018-Feb-14 02:49N 25°09' E 121°45'2 4.0
2018-Feb-14 02:26N 25°10' E 121°45'410.1
2018-Feb-14 02:00N 25°15' E 121°44'1 2.4
2018-Feb-14 01:31N 25°16' E 121°44'1 2.1
2018-Feb-14 01:00N 25°15' E 121°44'3 5.2
2018-Feb-14 00:30N 25°16' E 121°42'510.6
2018-Feb-14 00:00N 25°20' E 121°38'5 9.1
2018-Feb-13 23:30N 25°21' E 121°33'1612.3
2018-Feb-13 22:12N 25°17' E 121°16'418.2
2018-Feb-13 21:58N 25°15' E 121°12'919.5
2018-Feb-13 21:30N 25°11' E 121°03'1020.1
2018-Feb-13 21:00N 25°07' E 120°53'4621.4
2018-Feb-13 18:51N 24°31' E 120°21'1021.9
2018-Feb-13 18:23N 24°22' E 120°16'821.6
2018-Feb-13 18:00N 24°15' E 120°12'1121.3
2018-Feb-13 17:30N 24°05' E 120°06'1620.3
2018-Feb-13 16:41N 23°51' E 119°58'420.0
2018-Feb-13 16:30N 23°48' E 119°56'1020.3
2018-Feb-13 16:00N 23°38' E 119°53'1020.4
2018-Feb-13 15:30N 23°28' E 119°53'1020.3
2018-Feb-13 15:00N 23°18' E 119°53'2620.0
2018-Feb-13 13:44N 22°52' E 119°59'417.2
2018-Feb-13 13:31N 22°49' E 120°01'611.8
2018-Feb-13 13:00N 22°44' E 120°04'611.9
2018-Feb-13 12:31N 22°39' E 120°08'611.1
2018-Feb-13 12:01N 22°35' E 120°11'5 9.9
2018-Feb-13 11:31N 22°33' E 120°16'3 6.6
2018-Feb-13 11:00N 22°33' E 120°20'1 1.3
2018-Feb-13 10:29N 22°33' E 120°20'0 0.0
2018-Feb-13 09:59N 22°33' E 120°20'0 0.0
2018-Feb-13 09:29N 22°33' E 120°20'0 0.0
2018-Feb-13 08:59N 22°33' E 120°20'0 0.0
2018-Feb-13 08:29N 22°33' E 120°20'0 0.0
2018-Feb-13 07:58N 22°33' E 120°20'0 0.0
2018-Feb-13 07:29N 22°33' E 120°20'0 0.0
2018-Feb-13 06:59N 22°33' E 120°20'0 0.0
2018-Feb-13 06:29N 22°33' E 120°20'0 0.0
2018-Feb-13 05:59N 22°33' E 120°20'0 0.0
2018-Feb-13 05:30N 22°33' E 120°20'0 0.0
2018-Feb-13 04:59N 22°33' E 120°20'0 0.0
2018-Feb-13 04:28N 22°33' E 120°20'0 0.0
2018-Feb-13 03:58N 22°33' E 120°20'0 0.0
2018-Feb-13 03:28N 22°33' E 120°20'0 0.0
2018-Feb-13 02:58N 22°33' E 120°20'0 0.0
2018-Feb-13 02:28N 22°33' E 120°20'0 0.0
2018-Feb-13 01:58N 22°33' E 120°20'0 0.0
2018-Feb-13 01:31N 22°33' E 120°20'0 0.0
2018-Feb-13 00:59N 22°33' E 120°20'0 0.0
2018-Feb-13 00:28N 22°33' E 120°20'0 0.0
2018-Feb-12 23:58N 22°33' E 120°20'0 0.7
2018-Feb-12 23:30N 22°33' E 120°20'4 8.2
2018-Feb-12 23:00N 22°32' E 120°15'5 9.2
2018-Feb-12 22:30N 22°31' E 120°11'611.4
2018-Feb-12 22:00N 22°29' E 120°05'611.7
2018-Feb-12 21:30N 22°28' E 119°58'918.2
2018-Feb-12 21:00N 22°28' E 119°49'  
2018-Feb-10 07:54N 22°19' E 114°07'2310.8
2018-Feb-10 05:48N 22°06' E 114°27'  
2018-Feb-07 07:57N 22°29' E 119°41'711.4
2018-Feb-07 07:20N 22°30' E 119°48'411.5
2018-Feb-07 07:00N 22°31' E 119°53'611.1
2018-Feb-07 06:30N 22°31' E 119°58'611.8
2018-Feb-07 06:00N 22°32' E 120°05'612.0
2018-Feb-07 05:30N 22°32' E 120°11'611.9
2018-Feb-07 05:00N 22°33' E 120°18'1 2.9
2018-Feb-07 04:29N 22°33' E 120°19'0 0.0
2018-Feb-07 03:59N 22°33' E 120°19'0 0.0
2018-Feb-07 03:29N 22°33' E 120°19'0 0.0
2018-Feb-07 02:59N 22°33' E 120°19'0 0.0
2018-Feb-07 02:29N 22°33' E 120°19'0 0.0
2018-Feb-07 01:59N 22°33' E 120°19'0 0.0
2018-Feb-07 01:29N 22°33' E 120°19'0 0.0
2018-Feb-07 00:59N 22°33' E 120°19'0 0.0
2018-Feb-07 00:29N 22°33' E 120°19'0 0.0
2018-Feb-06 23:59N 22°33' E 120°19'0 0.0
2018-Feb-06 23:29N 22°33' E 120°19'0 0.0
2018-Feb-06 22:59N 22°33' E 120°19'  
Track history (hours):
 
Tides and Currents Weather Stations Pressure Air Temp Water Temp Dewpoint Dewpoint Depression Visibility Wind Speed Wind Dir Waves Ship Positions

YM Masculinity

Last reported at 2018-Feb-16 22:52 UTC. Time now 2018-Feb-21 03:30 UTC.
Position N 35°00' E 140°23'.

Length 306 m; draft 13 m.

Type: Ship (hazmat cat A). MMSI: 636015183.

Date/timePositionNaut miles runAvg speedWind from/ knotsBaromVisibWave heightAir tempDewpointWater temp
2018-Feb-16 22:52N 35°00' E 140°23'821.1
2018-Feb-16 22:29N 34°56' E 140°15'1121.6
2018-Feb-16 22:00N 34°50' E 140°04'1121.8
2018-Feb-16 21:29N 34°46' E 139°52'1020.9
2018-Feb-16 21:00N 34°42' E 139°41'1121.4
2018-Feb-16 20:30N 34°38' E 139°29'1121.4
2018-Feb-16 20:00N 34°35' E 139°16'1121.3
2018-Feb-16 19:30N 34°30' E 139°05'1121.4
2018-Feb-16 19:00N 34°25' E 138°53'1122.1
2018-Feb-16 18:30N 34°20' E 138°41'1122.9
2018-Feb-16 18:00N 34°15' E 138°29'1222.8
2018-Feb-16 17:30N 34°10' E 138°16'1122.5
2018-Feb-16 16:59N 34°05' E 138°04'97721.2
2018-Feb-14 18:50N 25°39' E 121°60'513.9
2018-Feb-14 18:31N 25°35' E 121°58'714.4
2018-Feb-14 18:00N 25°28' E 121°54'712.4
2018-Feb-14 17:29N 25°22' E 121°51'511.4
2018-Feb-14 17:00N 25°17' E 121°49'611.5
2018-Feb-14 16:30N 25°12' E 121°46'3 6.1
2018-Feb-14 16:00N 25°09' E 121°45'0 0.4
2018-Feb-14 15:29N 25°09' E 121°45'0 0.0
2018-Feb-14 14:59N 25°09' E 121°45'0 0.0
2018-Feb-14 14:23N 25°09' E 121°45'0 0.0
2018-Feb-14 13:59N 25°09' E 121°45'0 0.0
2018-Feb-14 13:29N 25°09' E 121°45'0 0.0
2018-Feb-14 12:59N 25°09' E 121°45'0 0.0
2018-Feb-14 12:29N 25°09' E 121°45'0 0.0
2018-Feb-14 11:59N 25°09' E 121°45'0 0.0
2018-Feb-14 11:29N 25°09' E 121°45'0 0.0
2018-Feb-14 10:59N 25°09' E 121°45'0 0.0
2018-Feb-14 10:30N 25°09' E 121°45'0 0.0
2018-Feb-14 10:00N 25°09' E 121°45'0 0.0
2018-Feb-14 09:30N 25°09' E 121°45'0 0.0
2018-Feb-14 08:57N 25°09' E 121°45'0 0.0
2018-Feb-14 08:30N 25°09' E 121°45'0 0.0
2018-Feb-14 02:49N 25°09' E 121°45'2 4.0
2018-Feb-14 02:26N 25°10' E 121°45'410.1
2018-Feb-14 02:00N 25°15' E 121°44'1 2.4
2018-Feb-14 01:31N 25°16' E 121°44'1 2.1
2018-Feb-14 01:00N 25°15' E 121°44'3 5.2
2018-Feb-14 00:30N 25°16' E 121°42'510.6
2018-Feb-14 00:00N 25°20' E 121°38'5 9.1
2018-Feb-13 23:30N 25°21' E 121°33'1612.3
2018-Feb-13 22:12N 25°17' E 121°16'418.2
2018-Feb-13 21:58N 25°15' E 121°12'919.5
2018-Feb-13 21:30N 25°11' E 121°03'1020.1
2018-Feb-13 21:00N 25°07' E 120°53'4621.4
2018-Feb-13 18:51N 24°31' E 120°21'1021.9
2018-Feb-13 18:23N 24°22' E 120°16'821.6
2018-Feb-13 18:00N 24°15' E 120°12'1121.3
2018-Feb-13 17:30N 24°05' E 120°06'1620.3
2018-Feb-13 16:41N 23°51' E 119°58'420.0
2018-Feb-13 16:30N 23°48' E 119°56'1020.3
2018-Feb-13 16:00N 23°38' E 119°53'1020.4
2018-Feb-13 15:30N 23°28' E 119°53'1020.3
2018-Feb-13 15:00N 23°18' E 119°53'2620.0
2018-Feb-13 13:44N 22°52' E 119°59'417.2
2018-Feb-13 13:31N 22°49' E 120°01'611.8
2018-Feb-13 13:00N 22°44' E 120°04'611.9
2018-Feb-13 12:31N 22°39' E 120°08'611.1
2018-Feb-13 12:01N 22°35' E 120°11'5 9.9
2018-Feb-13 11:31N 22°33' E 120°16'3 6.6
2018-Feb-13 11:00N 22°33' E 120°20'1 1.3
2018-Feb-13 10:29N 22°33' E 120°20'0 0.0
2018-Feb-13 09:59N 22°33' E 120°20'0 0.0
2018-Feb-13 09:29N 22°33' E 120°20'0 0.0
2018-Feb-13 08:59N 22°33' E 120°20'0 0.0
2018-Feb-13 08:29N 22°33' E 120°20'0 0.0
2018-Feb-13 07:58N 22°33' E 120°20'0 0.0
2018-Feb-13 07:29N 22°33' E 120°20'0 0.0
2018-Feb-13 06:59N 22°33' E 120°20'0 0.0
2018-Feb-13 06:29N 22°33' E 120°20'0 0.0
2018-Feb-13 05:59N 22°33' E 120°20'0 0.0
2018-Feb-13 05:30N 22°33' E 120°20'0 0.0
2018-Feb-13 04:59N 22°33' E 120°20'0 0.0
2018-Feb-13 04:28N 22°33' E 120°20'0 0.0
2018-Feb-13 03:58N 22°33' E 120°20'0 0.0
2018-Feb-13 03:28N 22°33' E 120°20'0 0.0
2018-Feb-13 02:58N 22°33' E 120°20'0 0.0
2018-Feb-13 02:28N 22°33' E 120°20'0 0.0
2018-Feb-13 01:58N 22°33' E 120°20'0 0.0
2018-Feb-13 01:31N 22°33' E 120°20'0 0.0
2018-Feb-13 00:59N 22°33' E 120°20'0 0.0
2018-Feb-13 00:28N 22°33' E 120°20'0 0.0
2018-Feb-12 23:58N 22°33' E 120°20'0 0.7
2018-Feb-12 23:30N 22°33' E 120°20'4 8.2
2018-Feb-12 23:00N 22°32' E 120°15'5 9.2
2018-Feb-12 22:30N 22°31' E 120°11'611.4
2018-Feb-12 22:00N 22°29' E 120°05'611.7
2018-Feb-12 21:30N 22°28' E 119°58'918.2
2018-Feb-12 21:00N 22°28' E 119°49'  
2018-Feb-10 07:54N 22°19' E 114°07'2310.8
2018-Feb-10 05:48N 22°06' E 114°27'  
2018-Feb-07 07:57N 22°29' E 119°41'711.4
2018-Feb-07 07:20N 22°30' E 119°48'411.5
2018-Feb-07 07:00N 22°31' E 119°53'611.1
2018-Feb-07 06:30N 22°31' E 119°58'611.8
2018-Feb-07 06:00N 22°32' E 120°05'612.0
2018-Feb-07 05:30N 22°32' E 120°11'611.9
2018-Feb-07 05:00N 22°33' E 120°18'1 2.9
2018-Feb-07 04:29N 22°33' E 120°19'0 0.0
2018-Feb-07 03:59N 22°33' E 120°19'0 0.0
2018-Feb-07 03:29N 22°33' E 120°19'0 0.0
2018-Feb-07 02:59N 22°33' E 120°19'0 0.0
2018-Feb-07 02:29N 22°33' E 120°19'0 0.0
2018-Feb-07 01:59N 22°33' E 120°19'0 0.0
2018-Feb-07 01:29N 22°33' E 120°19'0 0.0
2018-Feb-07 00:59N 22°33' E 120°19'0 0.0
2018-Feb-07 00:29N 22°33' E 120°19'0 0.0
2018-Feb-06 23:59N 22°33' E 120°19'0 0.0
2018-Feb-06 23:29N 22°33' E 120°19'0 0.0
2018-Feb-06 22:59N 22°33' E 120°19'  

Dump ship's entire track history